Time;durP1;ratioP1;P1;durP2;ratioP2;P2;SDS_P1;SDS_P2;PMS_P1;PMS_P2;Temp;Humidity;BMP_temperature;BMP_pressure;BME280_temperature;BME280_humidity;BME280_pressure;Samples;Min_cycle;Max_cycle;Signal;HPM_P1;HPM_P2
2023/04/09 00:01:10;;;;;;;11.17;7.10;;;11.20;1.00;;;;;;5010223;28;20433;-74
2023/04/09 00:03:37;;;;;;;8.93;6.20;;;11.00;1.00;;;;;;5007811;28;20210;-74
2023/04/09 00:06:05;;;;;;;12.40;7.10;;;11.00;1.00;;;;;;5010492;28;20448;-74
2023/04/09 00:08:31;;;;;;;10.27;6.97;;;11.00;1.00;;;;;;5011428;28;20520;-74
2023/04/09 00:10:57;;;;;;;10.07;7.03;;;10.90;1.00;;;;;;5010425;28;20520;-74
2023/04/09 00:13:23;;;;;;;11.67;7.70;;;10.90;1.00;;;;;;5009546;28;20576;-74
2023/04/09 00:15:49;;;;;;;10.70;6.80;;;10.90;1.00;;;;;;5009858;28;20521;-74
2023/04/09 00:18:15;;;;;;;10.97;7.43;;;10.90;1.00;;;;;;5011120;28;20192;-74
2023/04/09 00:20:42;;;;;;;10.43;7.17;;;10.90;1.00;;;;;;5008660;28;20206;-73
2023/04/09 00:23:08;;;;;;;9.83;6.30;;;10.80;1.00;;;;;;5012440;28;20457;-74
2023/04/09 00:25:34;;;;;;;13.80;8.30;;;10.80;1.00;;;;;;5008728;28;20456;-74
2023/04/09 00:27:59;;;;;;;11.17;7.33;;;10.80;1.00;;;;;;5009816;28;20210;-74
2023/04/09 00:30:28;;;;;;;14.13;7.70;;;10.80;1.00;;;;;;5009162;28;20472;-74
2023/04/09 00:32:54;;;;;;;11.53;8.30;;;10.70;1.00;;;;;;5010110;28;20302;-73
2023/04/09 00:35:19;;;;;;;11.93;7.83;;;10.70;1.00;;;;;;5009593;28;20516;-73
2023/04/09 00:37:45;;;;;;;10.70;7.70;;;10.70;1.00;;;;;;5008643;28;20726;-74
2023/04/09 00:40:11;;;;;;;11.20;7.60;;;10.60;1.00;;;;;;5009158;28;20179;-74
2023/04/09 00:42:36;;;;;;;11.53;7.83;;;10.60;1.00;;;;;;5007612;28;20721;-74
2023/04/09 00:45:03;;;;;;;11.83;8.20;;;10.70;1.00;;;;;;5008567;28;20249;-74
2023/04/09 00:47:29;;;;;;;10.70;7.50;;;10.70;1.00;;;;;;5009705;28;20425;-73
2023/04/09 00:49:56;;;;;;;11.70;8.03;;;10.60;1.00;;;;;;5008885;28;20433;-73
2023/04/09 00:52:22;;;;;;;13.77;8.97;;;10.60;1.00;;;;;;5009561;28;20465;-74
2023/04/09 00:54:51;;;;;;;10.80;7.77;;;12.30;1.00;;;;;;5009695;28;20804;-74
2023/04/09 00:57:18;;;;;;;13.77;8.40;;;10.60;1.00;;;;;;5009410;28;20437;-74
2023/04/09 00:59:44;;;;;;;12.10;7.97;;;10.70;1.00;;;;;;5010350;28;20947;-73
2023/04/09 01:02:10;;;;;;;10.40;7.77;;;10.60;1.00;;;;;;5009052;28;20461;-74
2023/04/09 01:04:37;;;;;;;12.50;7.93;;;10.60;1.00;;;;;;5009114;28;20930;-74
2023/04/09 01:07:14;;;;;;;12.70;7.93;;;10.50;1.00;;;;;;5010175;28;20605;-73
2023/04/09 01:09:52;;;;;;;11.87;7.77;;;10.60;1.00;;;;;;5006113;28;20444;-72
2023/04/09 01:12:50;;;;;;;10.83;7.40;;;10.70;1.00;;;;;;5008539;28;20465;-73
2023/04/09 01:15:24;;;;;;;14.13;9.80;;;10.50;1.00;;;;;;4970679;28;20953;-72
2023/04/09 01:17:55;;;;;;;11.60;8.00;;;10.50;1.00;;;;;;5007645;28;20437;-73
2023/04/09 01:20:46;;;;;;;12.83;8.40;;;10.50;1.00;;;;;;5007228;28;20529;-73
2023/04/09 01:23:24;;;;;;;17.67;8.87;;;10.40;1.00;;;;;;5008671;28;20460;-73
2023/04/09 01:26:06;;;;;;;12.30;8.20;;;10.40;1.00;;;;;;5008337;28;20792;-73
2023/04/09 01:28:34;;;;;;;13.33;8.80;;;10.40;1.00;;;;;;5010087;28;20858;-73
2023/04/09 01:31:12;;;;;;;13.10;8.50;;;10.40;1.00;;;;;;5006991;28;20528;-72
2023/04/09 01:33:40;;;;;;;13.30;9.13;;;10.30;1.00;;;;;;5009409;28;20460;-73
2023/04/09 01:36:06;;;;;;;12.57;8.13;;;10.20;1.00;;;;;;5008013;28;20804;-72
2023/04/09 01:38:34;;;;;;;13.37;8.90;;;10.30;1.00;;;;;;5007626;28;20697;-73
2023/04/09 01:41:02;;;;;;;14.60;9.00;;;10.30;1.00;;;;;;5006721;28;20476;-73
2023/04/09 01:43:28;;;;;;;13.63;8.43;;;10.20;1.00;;;;;;5009588;28;20449;-73
2023/04/09 01:45:54;;;;;;;15.10;9.70;;;10.30;1.00;;;;;;5008214;28;20445;-73
2023/04/09 01:48:21;;;;;;;14.27;9.07;;;10.20;1.00;;;;;;5008443;28;20603;-73
2023/04/09 01:50:48;;;;;;;13.00;8.90;;;10.20;1.00;;;;;;5007936;28;20190;-72
2023/04/09 01:53:14;;;;;;;12.97;8.70;;;10.20;1.00;;;;;;5007457;28;21134;-72
2023/04/09 01:55:40;;;;;;;12.73;8.60;;;10.20;1.00;;;;;;5008294;28;20441;-73
2023/04/09 01:58:05;;;;;;;13.00;8.70;;;10.20;1.00;;;;;;5009147;28;21062;-72
2023/04/09 02:00:36;;;;;;;13.90;9.57;;;10.30;1.00;;;;;;5007891;28;20185;-72
2023/04/09 02:03:23;;;;;;;12.17;8.70;;;10.20;1.00;;;;;;5007929;28;20222;-72
2023/04/09 02:06:12;;;;;;;15.53;9.67;;;10.20;1.00;;;;;;5007190;28;20473;-73
2023/04/09 02:08:38;;;;;;;15.60;9.10;;;10.20;1.00;;;;;;5009148;28;20433;-73
2023/04/09 02:11:09;;;;;;;14.37;9.60;;;10.20;1.00;;;;;;5007762;28;22433;-73
2023/04/09 02:13:36;;;;;;;13.17;8.57;;;10.30;1.00;;;;;;5008946;28;20465;-72
2023/04/09 02:16:03;;;;;;;15.57;10.17;;;10.30;1.00;;;;;;5007051;28;20444;-73
2023/04/09 02:18:29;;;;;;;15.70;10.00;;;10.30;1.00;;;;;;5008912;28;20969;-73
2023/04/09 02:20:57;;;;;;;16.37;9.70;;;10.30;1.00;;;;;;5004744;28;21040;-72
2023/04/09 02:23:23;;;;;;;14.30;10.07;;;10.20;1.00;;;;;;5008941;28;20472;-73
2023/04/09 02:25:50;;;;;;;15.17;9.60;;;10.20;1.00;;;;;;5004160;28;20441;-72
2023/04/09 02:28:15;;;;;;;15.50;10.07;;;10.20;1.00;;;;;;5008461;28;20916;-73
2023/04/09 02:30:41;;;;;;;16.37;10.17;;;10.20;1.00;;;;;;5007598;28;20789;-73
2023/04/09 02:33:06;;;;;;;13.27;8.93;;;10.20;1.00;;;;;;5007977;28;20232;-72
2023/04/09 02:35:32;;;;;;;15.40;10.30;;;10.20;1.00;;;;;;5007066;28;20568;-73
2023/04/09 02:37:58;;;;;;;15.63;9.60;;;10.20;1.00;;;;;;5009118;28;20190;-72
2023/04/09 02:40:24;;;;;;;17.20;10.63;;;10.20;1.00;;;;;;5007543;28;20438;-72
2023/04/09 02:42:51;;;;;;;16.90;10.10;;;10.20;1.00;;;;;;5008171;28;20525;-72
2023/04/09 02:45:17;;;;;;;13.30;9.57;;;10.10;1.00;;;;;;5007447;28;20240;-73
2023/04/09 02:47:42;;;;;;;16.10;9.83;;;10.20;1.00;;;;;;5008057;28;20764;-72
2023/04/09 02:50:08;;;;;;;13.50;9.13;;;10.20;1.00;;;;;;5006255;28;20209;-72
2023/04/09 02:52:34;;;;;;;16.10;9.87;;;10.20;1.00;;;;;;5005911;28;20202;-73
2023/04/09 02:54:59;;;;;;;17.37;10.43;;;10.20;1.00;;;;;;5005937;28;20182;-74
2023/04/09 02:57:25;;;;;;;16.37;9.70;;;10.10;1.00;;;;;;5009302;28;20245;-73
2023/04/09 02:59:50;;;;;;;15.23;9.93;;;10.20;1.00;;;;;;5006717;28;20739;-72
2023/04/09 03:02:16;;;;;;;16.20;10.10;;;10.20;1.00;;;;;;5005887;28;20713;-72
2023/04/09 03:04:41;;;;;;;16.33;9.70;;;10.30;1.00;;;;;;5003121;28;20209;-72
2023/04/09 03:07:07;;;;;;;15.47;10.17;;;10.30;1.00;;;;;;5007899;28;20217;-72
2023/04/09 03:09:33;;;;;;;18.17;10.90;;;10.30;1.00;;;;;;5004211;28;20191;-72
2023/04/09 03:11:58;;;;;;;16.93;10.50;;;10.30;1.00;;;;;;5004315;28;20301;-73
2023/04/09 03:14:24;;;;;;;14.70;9.77;;;10.30;1.00;;;;;;5005690;28;20289;-73
2023/04/09 03:16:49;;;;;;;15.80;10.23;;;10.30;1.00;;;;;;5007083;28;20185;-72
2023/04/09 03:19:15;;;;;;;15.30;9.90;;;10.40;1.00;;;;;;5004723;28;20677;-73
2023/04/09 03:21:41;;;;;;;20.40;10.73;;;10.40;1.00;;;;;;5006028;28;20186;-73
2023/04/09 03:24:07;;;;;;;17.70;11.30;;;10.40;1.00;;;;;;5006737;28;20269;-73
2023/04/09 03:26:35;;;;;;;16.07;10.40;;;10.40;1.00;;;;;;5001691;28;20524;-72
2023/04/09 03:29:05;;;;;;;16.27;10.80;;;10.30;1.00;;;;;;5006764;28;20194;-73
2023/04/09 03:31:31;;;;;;;16.40;10.67;;;10.20;1.00;;;;;;5006072;28;20493;-73
2023/04/09 03:33:57;;;;;;;15.37;10.03;;;10.30;1.00;;;;;;5006013;28;20441;-72
2023/04/09 03:36:22;;;;;;;19.33;11.30;;;10.20;1.00;;;;;;5005261;28;20453;-73
2023/04/09 03:38:48;;;;;;;18.53;11.97;;;10.20;1.00;;;;;;5009140;28;20262;-73
2023/04/09 03:41:14;;;;;;;18.00;10.97;;;10.30;1.00;;;;;;5006633;28;20194;-73
2023/04/09 03:43:40;;;;;;;17.10;11.13;;;10.20;1.00;;;;;;5006963;28;20203;-72
2023/04/09 03:46:15;;;;;;;16.60;11.37;;;10.20;1.00;;;;;;5007662;28;20229;-73
2023/04/09 03:48:42;;;;;;;17.43;11.20;;;10.20;1.00;;;;;;5004160;28;20193;-73
2023/04/09 03:51:14;;;;;;;16.60;10.60;;;10.30;1.00;;;;;;5005654;28;20967;-74
2023/04/09 03:53:41;;;;;;;17.20;10.90;;;10.20;1.00;;;;;;5007770;28;20537;-73
2023/04/09 03:56:07;;;;;;;15.47;10.40;;;10.10;1.00;;;;;;5000582;28;20953;-73
2023/04/09 03:58:33;;;;;;;17.87;11.20;;;10.10;1.00;;;;;;5007739;28;20452;-73
2023/04/09 04:00:58;;;;;;;17.93;11.80;;;10.00;1.00;;;;;;5005415;28;20468;-73
2023/04/09 04:03:24;;;;;;;15.50;10.67;;;10.00;1.00;;;;;;5007711;28;20340;-73
2023/04/09 04:05:49;;;;;;;17.40;11.20;;;9.90;1.00;;;;;;5005410;28;20187;-73
2023/04/09 04:08:15;;;;;;;18.47;11.50;;;9.90;1.00;;;;;;5007150;28;20190;-74
2023/04/09 04:10:40;;;;;;;16.20;10.73;;;9.90;1.00;;;;;;5004838;28;20556;-72
2023/04/09 04:13:09;;;;;;;18.40;11.70;;;9.90;1.00;;;;;;5009085;28;20210;-73
2023/04/09 04:15:41;;;;;;;16.43;11.10;;;9.90;1.00;;;;;;5009393;28;20228;-73
2023/04/09 04:18:07;;;;;;;18.67;11.77;;;9.90;1.00;;;;;;5010783;28;20431;-73
2023/04/09 04:20:33;;;;;;;18.00;12.10;;;9.80;1.00;;;;;;5007316;28;20449;-73
2023/04/09 04:22:58;;;;;;;18.63;11.73;;;9.80;1.00;;;;;;5011478;28;20496;-73
2023/04/09 04:25:24;;;;;;;18.30;12.40;;;9.80;1.00;;;;;;5008781;28;20186;-73
2023/04/09 04:27:50;;;;;;;18.63;11.90;;;9.80;1.00;;;;;;5010606;28;20179;-73
2023/04/09 04:30:15;;;;;;;21.63;12.00;;;9.80;1.00;;;;;;5009780;28;20187;-73
2023/04/09 04:32:41;;;;;;;16.57;10.83;;;9.80;1.00;;;;;;5008623;28;20210;-73
2023/04/09 04:35:07;;;;;;;18.57;11.20;;;9.80;1.00;;;;;;5010310;28;20186;-74
2023/04/09 04:37:32;;;;;;;18.63;11.57;;;9.80;1.00;;;;;;5010472;28;20183;-73
2023/04/09 04:40:00;;;;;;;18.30;11.80;;;9.80;1.00;;;;;;5007405;28;20433;-73
2023/04/09 04:42:26;;;;;;;17.80;11.97;;;9.70;1.00;;;;;;5010553;28;20213;-73
2023/04/09 04:44:51;;;;;;;16.67;12.00;;;9.70;1.00;;;;;;5008004;28;21032;-73
2023/04/09 04:47:18;;;;;;;21.83;12.97;;;9.70;1.00;;;;;;5010265;28;20187;-73
2023/04/09 04:49:44;;;;;;;17.20;11.50;;;9.70;1.00;;;;;;5009482;28;20190;-73
2023/04/09 04:52:09;;;;;;;22.90;13.27;;;9.70;1.00;;;;;;5066276;22;20469;-74
2023/04/09 04:54:35;;;;;;;20.33;12.10;;;9.70;1.00;;;;;;5030190;28;20198;-75
2023/04/09 04:57:01;;;;;;;21.33;12.60;;;9.60;1.00;;;;;;5027978;28;20624;-74
2023/04/09 04:59:27;;;;;;;19.17;12.07;;;9.50;1.00;;;;;;5031628;28;20329;-73
2023/04/09 05:01:52;;;;;;;18.77;11.53;;;9.40;1.00;;;;;;5240316;22;20222;-72
2023/04/09 05:04:18;;;;;;;18.27;11.53;;;9.40;1.00;;;;;;5193026;22;20253;-72
2023/04/09 05:06:43;;;;;;;18.80;12.40;;;9.40;1.00;;;;;;5006517;28;20178;-73
2023/04/09 05:09:09;;;;;;;18.40;12.80;;;9.40;1.00;;;;;;5052113;22;20242;-72
2023/04/09 05:11:34;;;;;;;20.57;12.40;;;9.30;1.00;;;;;;5561729;22;20844;-73
2023/04/09 05:16:35;;;;;;;22.53;12.13;;;9.40;1.00;;;;;;5443945;22;20182;-72
2023/04/09 05:19:01;;;;;;;20.10;12.33;;;9.40;1.00;;;;;;5143412;22;20495;-72
2023/04/09 05:24:02;;;;;;;23.87;13.20;;;9.40;1.00;;;;;;5146848;22;20266;-72
2023/04/09 05:26:27;;;;;;;17.60;12.40;;;9.40;1.00;;;;;;4989709;28;20438;-72
2023/04/09 05:31:28;;;;;;;26.73;14.10;;;9.50;1.00;;;;;;5505267;22;20199;-72
2023/04/09 05:33:54;;;;;;;19.57;12.93;;;9.50;1.00;;;;;;5025381;28;20526;-72
2023/04/09 05:36:20;;;;;;;20.43;12.60;;;9.60;1.00;;;;;;5026881;28;20174;-72
2023/04/09 05:38:50;;;;;;;17.40;11.77;;;9.60;1.00;;;;;;5206225;22;20757;-73
2023/04/09 05:43:50;;;;;;;24.20;12.30;;;9.70;1.00;;;;;;5361495;22;20538;-71
2023/04/09 05:46:16;;;;;;;19.97;13.03;;;8.10;1.00;;;;;;5007687;28;20848;-72
2023/04/09 05:51:17;;;;;;;19.30;11.47;;;9.80;1.00;;;;;;5201523;22;20241;-71
2023/04/09 05:53:43;;;;;;;19.90;13.37;;;9.80;1.00;;;;;;5457939;22;21053;-73
2023/04/09 05:56:13;;;;;;;18.70;12.57;;;9.90;1.00;;;;;;5029842;28;20182;-70
2023/04/09 05:58:39;;;;;;;19.77;11.80;;;9.90;1.00;;;;;;5028525;28;20429;-70
2023/04/09 06:01:04;;;;;;;20.10;12.40;;;10.00;1.00;;;;;;5028367;28;20479;-70
2023/04/09 06:03:30;;;;;;;18.93;12.50;;;10.10;1.00;;;;;;5016111;28;20375;-70
2023/04/09 06:05:56;;;;;;;19.60;13.30;;;10.20;1.00;;;;;;5010360;28;20265;-70
2023/04/09 06:08:21;;;;;;;21.30;12.83;;;10.30;1.00;;;;;;5034361;22;20227;-74
2023/04/09 06:10:47;;;;;;;19.10;13.17;;;10.40;1.00;;;;;;5002417;28;20195;-74
2023/04/09 06:13:12;;;;;;;19.23;13.07;;;10.40;1.00;;;;;;4987170;28;20260;-74
2023/04/09 06:15:38;;;;;;;19.43;12.23;;;10.90;1.00;;;;;;5005424;28;20576;-74
2023/04/09 06:18:04;;;;;;;18.93;12.30;;;10.90;1.00;;;;;;5004852;28;20693;-74
2023/04/09 06:20:30;;;;;;;19.47;12.97;;;10.90;1.00;;;;;;4988977;28;20175;-74
2023/04/09 06:22:55;;;;;;;17.50;11.50;;;11.00;1.00;;;;;;4989214;28;20636;-74
2023/04/09 06:25:21;;;;;;;18.27;12.13;;;11.10;1.00;;;;;;4987688;28;20533;-75
2023/04/09 06:27:47;;;;;;;21.50;13.10;;;11.20;1.00;;;;;;4988482;28;20553;-75
2023/04/09 06:30:12;;;;;;;21.00;13.37;;;11.20;1.00;;;;;;4987577;28;20203;-75
2023/04/09 06:32:38;;;;;;;20.77;13.27;;;11.30;1.00;;;;;;4994592;28;20199;-74
2023/04/09 06:35:04;;;;;;;20.77;12.50;;;11.30;1.00;;;;;;4980937;28;20188;-74
2023/04/09 06:37:30;;;;;;;18.00;12.30;;;11.40;1.00;;;;;;4986965;28;20182;-74
2023/04/09 06:39:55;;;;;;;18.60;12.73;;;11.40;1.00;;;;;;4986391;28;20442;-74
2023/04/09 06:42:21;;;;;;;17.23;11.70;;;12.10;1.00;;;;;;4985810;28;20182;-74
2023/04/09 06:44:46;;;;;;;19.07;12.33;;;11.70;1.00;;;;;;4987604;28;20234;-74
2023/04/09 06:47:12;;;;;;;20.13;12.50;;;11.60;1.00;;;;;;4983959;28;20685;-74
2023/04/09 06:49:37;;;;;;;17.20;11.47;;;12.80;1.00;;;;;;4985986;28;20202;-75
2023/04/09 06:52:04;;;;;;;19.47;13.27;;;11.50;1.00;;;;;;4986113;28;20261;-74
2023/04/09 06:54:30;;;;;;;19.73;12.30;;;11.70;1.00;;;;;;5004900;28;20597;-74
2023/04/09 06:56:55;;;;;;;18.50;11.67;;;11.80;1.00;;;;;;4988249;28;20426;-74
2023/04/09 06:59:21;;;;;;;18.47;12.57;;;11.80;1.00;;;;;;4987819;28;20258;-74
2023/04/09 07:01:46;;;;;;;18.17;12.50;;;12.00;1.00;;;;;;4985062;28;20190;-74
2023/04/09 07:04:12;;;;;;;20.87;13.63;;;12.10;1.00;;;;;;4988587;28;20194;-74
2023/04/09 07:06:39;;;;;;;18.63;11.93;;;12.10;1.00;;;;;;4988193;28;20187;-74
2023/04/09 07:09:04;;;;;;;17.60;12.60;;;12.20;1.00;;;;;;4985633;28;20265;-74
2023/04/09 07:11:30;;;;;;;18.80;12.87;;;12.40;1.00;;;;;;4988234;28;20450;-74
2023/04/09 07:13:56;;;;;;;18.70;12.63;;;12.40;1.00;;;;;;4988627;28;20672;-74
2023/04/09 07:16:22;;;;;;;20.63;12.60;;;12.70;1.00;;;;;;4987747;28;20670;-74
2023/04/09 07:18:47;;;;;;;17.58;12.52;;;12.50;1.00;;;;;;4985844;28;20965;-74
2023/04/09 07:21:13;;;;;;;17.43;12.60;;;12.60;1.00;;;;;;4987678;28;20191;-75
2023/04/09 07:23:38;;;;;;;18.43;13.20;;;12.60;1.00;;;;;;4987918;28;20194;-75
2023/04/09 07:26:05;;;;;;;18.07;12.40;;;12.90;1.00;;;;;;4987939;28;20407;-73
2023/04/09 07:28:30;;;;;;;16.10;11.40;;;13.30;1.00;;;;;;4988235;28;20203;-74
2023/04/09 07:30:56;;;;;;;17.60;12.30;;;13.80;1.00;;;;;;4988006;28;20457;-75
2023/04/09 07:33:22;;;;;;;15.50;11.30;;;14.20;1.00;;;;;;4987565;28;20233;-75
2023/04/09 07:35:48;;;;;;;17.47;12.60;;;14.40;1.00;;;;;;4988451;28;20183;-74
2023/04/09 07:38:13;;;;;;;16.93;12.37;;;14.60;1.00;;;;;;4988540;28;20214;-74
2023/04/09 07:40:39;;;;;;;17.60;12.63;;;14.60;1.00;;;;;;4987702;28;20686;-74
2023/04/09 07:43:05;;;;;;;19.87;13.93;;;14.40;1.00;;;;;;4987803;28;20569;-73
2023/04/09 07:45:30;;;;;;;17.10;11.97;;;14.10;1.00;;;;;;4988081;28;20191;-74
2023/04/09 07:47:56;;;;;;;18.07;12.73;;;14.20;1.00;;;;;;4989990;28;20700;-74
2023/04/09 07:50:22;;;;;;;17.10;12.17;;;14.30;1.00;;;;;;4991670;28;20677;-74
2023/04/09 07:52:47;;;;;;;16.63;12.00;;;14.50;1.00;;;;;;4991667;28;20273;-74
2023/04/09 07:55:13;;;;;;;16.70;13.00;;;14.80;1.00;;;;;;4991447;28;20183;-74
2023/04/09 07:57:38;;;;;;;18.17;12.50;;;14.70;1.00;;;;;;4992168;28;20175;-74
2023/04/09 08:00:05;;;;;;;16.93;12.37;;;14.60;1.00;;;;;;4991089;28;20681;-73
2023/04/09 08:02:31;;;;;;;17.50;11.63;;;14.40;1.00;;;;;;4989113;28;20670;-74
2023/04/09 08:04:56;;;;;;;15.60;11.63;;;14.60;1.00;;;;;;4986363;28;20738;-74
2023/04/09 08:07:22;;;;;;;14.07;10.80;;;14.40;1.00;;;;;;4989184;28;20198;-74
2023/04/09 08:09:48;;;;;;;16.30;12.13;;;14.30;1.00;;;;;;4988903;28;20221;-74
2023/04/09 08:12:13;;;;;;;16.60;12.80;;;14.60;1.00;;;;;;4988904;28;20466;-74
2023/04/09 08:14:39;;;;;;;15.00;11.40;;;14.80;1.00;;;;;;4988078;28;20631;-73
2023/04/09 08:17:04;;;;;;;15.50;12.17;;;15.20;1.00;;;;;;4987667;28;20649;-74
2023/04/09 08:19:30;;;;;;;17.17;11.73;;;16.70;1.00;;;;;;4987251;28;20226;-74
2023/04/09 08:21:57;;;;;;;13.90;11.10;;;15.20;1.00;;;;;;4988196;28;20186;-74
2023/04/09 08:24:23;;;;;;;15.77;12.60;;;16.00;1.00;;;;;;4980230;28;20266;-74
2023/04/09 08:26:48;;;;;;;16.83;13.70;;;16.90;1.00;;;;;;4986773;28;20541;-73
2023/04/09 08:29:14;;;;;;;19.17;14.17;;;17.30;1.00;;;;;;4982980;28;20210;-73
2023/04/09 08:31:40;;;;;;;17.47;13.50;;;18.10;1.00;;;;;;4986468;28;20199;-74
2023/04/09 08:34:06;;;;;;;17.20;13.40;;;19.50;1.00;;;;;;4986278;28;20678;-73
2023/04/09 08:36:33;;;;;;;16.47;13.03;;;20.70;1.00;;;;;;4987762;28;20434;-74
2023/04/09 08:38:59;;;;;;;17.90;14.43;;;22.10;1.00;;;;;;4986368;28;20206;-74
2023/04/09 08:41:29;;;;;;;15.70;12.63;;;23.10;1.00;;;;;;4987696;28;20448;-74
2023/04/09 08:43:56;;;;;;;17.00;13.00;;;24.10;1.00;;;;;;4984445;28;20269;-74
2023/04/09 08:46:22;;;;;;;15.90;13.53;;;24.80;1.00;;;;;;4986446;28;20528;-74
2023/04/09 08:48:49;;;;;;;16.03;13.07;;;25.20;1.00;;;;;;4986461;28;20464;-74
2023/04/09 08:51:16;;;;;;;14.80;13.00;;;25.60;1.00;;;;;;4983622;28;20186;-74
2023/04/09 08:53:52;;;;;;;13.33;11.93;;;25.20;1.00;;;;;;4987374;28;20198;-74
2023/04/09 08:56:18;;;;;;;13.13;11.57;;;25.60;1.00;;;;;;4992136;28;20718;-75
2023/04/09 08:58:45;;;;;;;13.90;11.60;;;25.40;1.00;;;;;;4983804;28;20784;-74
2023/04/09 09:01:37;;;;;;;13.20;11.80;;;24.40;1.00;;;;;;4986221;28;20277;-74
2023/04/09 09:04:05;;;;;;;14.77;12.77;;;24.20;1.00;;;;;;4982660;28;20677;-74
2023/04/09 09:06:31;;;;;;;16.50;12.60;;;24.70;1.00;;;;;;4985532;28;20245;-74
2023/04/09 09:09:09;;;;;;;13.20;11.80;;;25.90;1.00;;;;;;4988239;28;20297;-74
2023/04/09 09:11:40;;;;;;;13.90;12.10;;;25.90;1.00;;;;;;4981780;28;20186;-74
2023/04/09 09:14:11;;;;;;;13.77;12.20;;;25.90;1.00;;;;;;4982571;28;20218;-74
2023/04/09 09:17:03;;;;;;;16.00;13.53;;;25.50;1.00;;;;;;4986641;28;20307;-74
2023/04/09 09:19:32;;;;;;;14.93;13.20;;;25.80;1.00;;;;;;4988336;28;20199;-74
2023/04/09 09:22:07;;;;;;;14.00;12.50;;;25.80;1.00;;;;;;4985211;28;20267;-74
2023/04/09 09:24:33;;;;;;;12.10;10.80;;;25.50;1.00;;;;;;4984331;28;20656;-74
2023/04/09 09:26:59;;;;;;;12.47;11.00;;;25.70;1.00;;;;;;4983767;28;20198;-75
2023/04/09 09:29:26;;;;;;;13.77;11.50;;;27.00;1.00;;;;;;4983996;28;20202;-74
2023/04/09 09:31:53;;;;;;;12.20;10.90;;;27.90;1.00;;;;;;4985420;28;20693;-74
2023/04/09 09:34:22;;;;;;;11.60;10.18;;;28.50;1.00;;;;;;4987996;28;20443;-74
2023/04/09 09:36:48;;;;;;;14.13;11.20;;;28.00;1.00;;;;;;4985492;28;20198;-74
2023/04/09 09:39:16;;;;;;;12.48;11.15;;;27.70;1.00;;;;;;4988430;28;20210;-74
2023/04/09 09:41:43;;;;;;;10.30;9.13;;;28.20;1.00;;;;;;4985017;28;20273;-74
2023/04/09 09:44:10;;;;;;;10.45;9.40;;;28.00;1.00;;;;;;4986706;28;20270;-74
2023/04/09 09:46:38;;;;;;;11.80;10.02;;;27.90;1.00;;;;;;4985256;28;20277;-74
2023/04/09 09:49:04;;;;;;;12.03;10.60;;;26.50;1.00;;;;;;4983019;28;20217;-74
2023/04/09 09:51:32;;;;;;;12.30;10.30;;;26.60;1.00;;;;;;4986508;28;20229;-74
2023/04/09 09:53:58;;;;;;;10.63;9.53;;;27.40;1.00;;;;;;4988124;28;20257;-75
2023/04/09 09:56:31;;;;;;;11.37;10.00;;;26.80;1.00;;;;;;4986372;28;20574;-74
2023/04/09 09:59:09;;;;;;;11.33;9.57;;;26.00;1.00;;;;;;4986379;28;20199;-74
2023/04/09 10:01:36;;;;;;;11.40;10.20;;;25.90;1.00;;;;;;4986457;28;20207;-75
2023/04/09 10:04:04;;;;;;;11.93;10.30;;;24.50;1.00;;;;;;4988392;28;20194;-74
2023/04/09 10:06:33;;;;;;;12.10;9.70;;;23.20;1.00;;;;;;4987383;28;20468;-74
2023/04/09 10:09:03;;;;;;;12.90;10.50;;;23.40;1.00;;;;;;4984775;28;20480;-74
2023/04/09 10:11:34;;;;;;;11.90;9.73;;;21.10;1.00;;;;;;4984664;28;20441;-74
2023/04/09 10:14:00;;;;;;;13.50;10.20;;;20.50;1.00;;;;;;4986104;28;21055;-74
2023/04/09 10:16:27;;;;;;;12.50;9.87;;;20.20;1.00;;;;;;4984181;28;20462;-76
2023/04/09 10:18:57;;;;;;;11.60;9.40;;;19.90;1.00;;;;;;4983668;28;20481;-74
2023/04/09 10:21:42;;;;;;;11.63;9.50;;;19.70;1.00;;;;;;4985706;28;20437;-74
2023/04/09 10:24:08;;;;;;;12.20;10.00;;;20.00;1.00;;;;;;4985069;28;20465;-74
2023/04/09 10:26:35;;;;;;;12.33;10.13;;;20.10;1.00;;;;;;4983700;28;20465;-74
2023/04/09 10:29:10;;;;;;;12.80;9.80;;;19.60;1.00;;;;;;4984315;28;20210;-74
2023/04/09 10:31:52;;;;;;;13.10;10.30;;;19.70;1.00;;;;;;4984179;28;20519;-74
2023/04/09 10:34:25;;;;;;;12.40;9.17;;;20.20;1.00;;;;;;4984794;28;20533;-74
2023/04/09 10:36:58;;;;;;;14.17;9.97;;;21.00;1.00;;;;;;4982710;28;20977;-74
2023/04/09 10:39:29;;;;;;;10.67;8.87;;;20.30;1.00;;;;;;4982670;28;21127;-74
2023/04/09 10:41:56;;;;;;;11.37;9.10;;;19.80;1.00;;;;;;4985164;28;20452;-74
2023/04/09 10:44:25;;;;;;;10.13;8.10;;;20.20;1.00;;;;;;4984015;28;20453;-74
2023/04/09 10:46:55;;;;;;;11.93;8.67;;;20.90;1.00;;;;;;4983471;28;20429;-74
2023/04/09 10:49:23;;;;;;;9.90;7.80;;;21.10;1.00;;;;;;4985353;28;20449;-74
2023/04/09 10:52:02;;;;;;;10.70;8.57;;;21.10;1.00;;;;;;4985646;28;20797;-74
2023/04/09 10:54:34;;;;;;;10.50;8.47;;;20.40;1.00;;;;;;4985143;28;20440;-74
2023/04/09 10:57:14;;;;;;;11.30;9.03;;;20.30;1.00;;;;;;4982437;28;20452;-74
2023/04/09 10:59:41;;;;;;;11.70;9.30;;;20.10;1.00;;;;;;4975818;28;20580;-74
2023/04/09 11:02:16;;;;;;;10.90;8.57;;;20.50;1.00;;;;;;4981416;28;21115;-74
2023/04/09 11:05:18;;;;;;;13.17;9.20;;;20.90;1.00;;;;;;4981909;28;20952;-74
2023/04/09 11:07:48;;;;;;;11.23;9.27;;;21.40;1.00;;;;;;4984641;28;20445;-74
2023/04/09 11:10:14;;;;;;;13.33;9.67;;;21.90;1.00;;;;;;4986127;28;20434;-74
2023/04/09 11:12:40;;;;;;;11.33;9.00;;;22.10;1.00;;;;;;4986650;28;20462;-74
2023/04/09 11:15:14;;;;;;;11.70;8.90;;;21.50;1.00;;;;;;4985753;28;20210;-74
2023/04/09 11:17:39;;;;;;;10.00;8.23;;;20.70;1.00;;;;;;4985567;28;20214;-73
2023/04/09 11:20:06;;;;;;;9.90;7.93;;;19.90;1.00;;;;;;4981001;28;20485;-75
2023/04/09 11:22:32;;;;;;;10.50;8.30;;;19.50;1.00;;;;;;5002272;28;20187;-74
2023/04/09 11:24:58;;;;;;;11.37;8.70;;;19.10;1.00;;;;;;4983810;28;20500;-74
2023/04/09 11:27:23;;;;;;;10.87;8.17;;;18.70;1.00;;;;;;4990567;28;20430;-73
2023/04/09 11:29:57;;;;;;;10.47;8.10;;;18.70;1.00;;;;;;4985790;28;20213;-73
2023/04/09 11:32:30;;;;;;;9.90;7.83;;;19.00;1.00;;;;;;4990823;28;20747;-73
2023/04/09 11:34:56;;;;;;;10.13;8.27;;;19.00;1.00;;;;;;4989153;28;20506;-74
2023/04/09 11:37:22;;;;;;;15.13;10.80;;;17.20;1.00;;;;;;4982879;28;20439;-73
2023/04/09 11:39:50;;;;;;;9.87;7.40;;;19.50;1.00;;;;;;4986929;28;20445;-74
2023/04/09 11:42:16;;;;;;;11.33;7.40;;;19.90;1.00;;;;;;4988234;28;20287;-74
2023/04/09 11:44:44;;;;;;;8.47;6.60;;;20.60;1.00;;;;;;4988846;28;20449;-74
2023/04/09 11:47:10;;;;;;;8.63;6.17;;;21.00;1.00;;;;;;4986413;28;20197;-74
2023/04/09 11:49:36;;;;;;;9.67;5.87;;;20.70;1.00;;;;;;4984976;28;20494;-74
2023/04/09 11:52:03;;;;;;;7.80;6.13;;;20.40;1.00;;;;;;4988806;28;21000;-75
2023/04/09 11:54:35;;;;;;;7.93;6.17;;;19.80;1.00;;;;;;4987245;28;20179;-74
2023/04/09 11:57:03;;;;;;;8.53;6.73;;;19.60;1.00;;;;;;4988844;28;20842;-74
2023/04/09 11:59:29;;;;;;;8.13;6.30;;;19.90;1.00;;;;;;4987898;28;20454;-74
2023/04/09 12:01:57;;;;;;;8.60;6.90;;;20.80;1.00;;;;;;4985461;28;20445;-74
2023/04/09 12:04:23;;;;;;;8.53;6.67;;;21.00;1.00;;;;;;4989276;28;20414;-74
2023/04/09 12:06:49;;;;;;;7.33;6.30;;;21.00;1.00;;;;;;4988558;28;20487;-75
2023/04/09 12:09:15;;;;;;;8.53;7.07;;;21.10;1.00;;;;;;4991151;28;20237;-74
2023/04/09 12:11:45;;;;;;;7.80;6.50;;;21.40;1.00;;;;;;4989378;28;20461;-74
2023/04/09 12:14:17;;;;;;;8.10;6.27;;;23.20;1.00;;;;;;4990627;28;20207;-74
2023/04/09 12:16:43;;;;;;;7.80;6.53;;;26.40;1.00;;;;;;4990981;28;20460;-74
2023/04/09 12:19:12;;;;;;;8.63;6.87;;;29.20;1.00;;;;;;4990058;28;20465;-75
2023/04/09 12:21:53;;;;;;;7.03;5.97;;;28.50;1.00;;;;;;4990155;28;20959;-74
2023/04/09 12:24:22;;;;;;;7.40;5.90;;;25.60;1.00;;;;;;4990716;28;20456;-75
2023/04/09 12:26:49;;;;;;;7.20;5.73;;;23.70;1.00;;;;;;4991483;28;20468;-74
2023/04/09 12:29:17;;;;;;;9.00;6.27;;;22.20;1.00;;;;;;4986151;28;20469;-74
2023/04/09 12:31:44;;;;;;;8.03;6.40;;;21.20;1.00;;;;;;4990599;28;20433;-73
2023/04/09 12:34:09;;;;;;;7.57;6.10;;;20.60;1.00;;;;;;4988152;28;20457;-74
2023/04/09 12:36:35;;;;;;;7.07;5.67;;;20.80;1.00;;;;;;4987778;28;20438;-73
2023/04/09 12:39:00;;;;;;;7.40;6.07;;;22.30;1.00;;;;;;4989593;28;20675;-74
2023/04/09 12:41:26;;;;;;;7.00;5.57;;;23.30;1.00;;;;;;4985409;28;20179;-74
2023/04/09 12:43:52;;;;;;;6.90;5.90;;;25.70;1.00;;;;;;4989467;28;20649;-74
2023/04/09 12:46:18;;;;;;;7.03;6.10;;;26.60;1.00;;;;;;4991029;28;20233;-74
2023/04/09 12:48:44;;;;;;;10.80;6.07;;;26.70;1.00;;;;;;4990537;28;20214;-74
2023/04/09 12:51:11;;;;;;;7.70;6.23;;;27.40;1.00;;;;;;4991017;28;20432;-73
2023/04/09 12:53:36;;;;;;;7.20;5.97;;;26.30;1.00;;;;;;4990169;28;21026;-74
2023/04/09 12:56:02;;;;;;;6.70;6.00;;;24.60;1.00;;;;;;4991457;28;20441;-74
2023/04/09 12:58:28;;;;;;;7.23;6.00;;;25.00;1.00;;;;;;4989295;28;20505;-74